Time;durP1;ratioP1;P1;durP2;ratioP2;P2;SDS_P1;SDS_P2;PMS_P1;PMS_P2;Temp;Humidity;BMP_temperature;BMP_pressure;BME280_temperature;BME280_humidity;BME280_pressure;Samples;Min_cycle;Max_cycle;Signal;HPM_P1;HPM_P2
2022/01/20 00:02:07;;;;;;;0.73;0.73;;;;;;;;;;5059045;28;20074;-77
2022/01/20 00:04:49;;;;;;;;;;;;;;;;;;5060099;28;20056;-77
2022/01/20 00:07:34;;;;;;;0.10;0.10;;;;;;;;;;5058653;28;19912;-77
2022/01/20 00:26:19;;;;;;;0.20;0.20;;;;;;;;;;5058639;28;20052;-77
2022/01/20 00:28:49;;;;;;;2.97;2.72;;;;;;;;;;5058763;28;20040;-77
2022/01/20 00:31:33;;;;;;;0.40;0.40;;;;;;;;;;5057357;28;20098;-77
2022/01/20 00:34:15;;;;;;;0.30;0.30;;;;;;;;;;5058976;28;20067;-77
2022/01/20 00:39:26;;;;;;;0.50;0.50;;;;;;;;;;5058336;28;20048;-79
2022/01/20 00:41:53;;;;;;;0.40;0.40;;;;;;;;;;5059412;28;20154;-79
2022/01/20 00:44:19;;;;;;;0.20;0.20;;;;;;;;;;5063013;28;20040;-79
2022/01/20 00:46:46;;;;;;;0.43;0.43;;;;;;;;;;5060747;28;20401;-79
2022/01/20 00:49:12;;;;;;;0.93;0.93;;;;;;;;;;5058194;28;20282;-79
2022/01/20 00:51:38;;;;;;;0.10;0.10;;;;;;;;;;5056584;28;20390;-79
2022/01/20 00:54:04;;;;;;;2.03;1.93;;;;;;;;;;5058612;28;20068;-79
2022/01/20 00:56:30;;;;;;;0.40;0.40;;;;;;;;;;5058212;28;21844;-79
2022/01/20 00:58:56;;;;;;;2.03;1.83;;;;;;;;;;5056702;28;20406;-79
2022/01/20 01:01:24;;;;;;;0.30;0.30;;;;;;;;;;5061244;28;20272;-79
2022/01/20 01:03:50;;;;;;;0.90;0.90;;;;;;;;;;5060547;28;20438;-78
2022/01/20 01:08:42;;;;;;;2.08;1.88;;;;;;;;;;5057560;28;20521;-79
2022/01/20 01:11:08;;;;;;;1.40;0.73;;;;;;;;;;5058304;28;20059;-79
2022/01/20 01:13:34;;;;;;;1.85;1.75;;;;;;;;;;5062845;28;20043;-80
2022/01/20 01:16:01;;;;;;;0.43;0.43;;;;;;;;;;5062498;28;20135;-80
2022/01/20 01:21:40;;;;;;;0.32;0.30;;;;;;;;;;5062836;28;20089;-79
2022/01/20 01:24:06;;;;;;;1.27;1.05;;;;;;;;;;5058207;28;20028;-79
2022/01/20 01:26:32;;;;;;;0.63;0.63;;;;;;;;;;5056521;28;20040;-79
2022/01/20 01:29:00;;;;;;;0.60;0.60;;;;;;;;;;5059051;28;20301;-79
2022/01/20 01:33:58;;;;;;;0.60;0.60;;;;;;;;;;5057700;28;20538;-79
2022/01/20 01:36:27;;;;;;;2.05;1.80;;;;;;;;;;5059747;28;20283;-79
2022/01/20 01:38:53;;;;;;;0.68;0.52;;;;;;;;;;5057388;28;20417;-79
2022/01/20 01:41:28;;;;;;;2.10;0.98;;;;;;;;;;5057326;28;20046;-79
2022/01/20 01:43:55;;;;;;;0.63;0.57;;;;;;;;;;5059405;28;21622;-79
2022/01/20 01:46:21;;;;;;;;;;;;;;;;;;5058634;28;20046;-79
2022/01/20 01:48:47;;;;;;;1.65;0.88;;;;;;;;;;5057045;28;19943;-79
2022/01/20 01:51:13;;;;;;;0.83;0.83;;;;;;;;;;5058508;28;20044;-79
2022/01/20 01:53:40;;;;;;;0.30;0.30;;;;;;;;;;5057564;28;20036;-79
2022/01/20 01:56:06;;;;;;;;;;;;;;;;;;5058052;28;20025;-79
2022/01/20 01:58:33;;;;;;;1.10;1.10;;;;;;;;;;5060931;28;20525;-79
2022/01/20 02:00:59;;;;;;;0.98;0.93;;;;;;;;;;5057826;28;20324;-79
2022/01/20 02:03:25;;;;;;;1.25;1.05;;;;;;;;;;5059581;28;20044;-79
2022/01/20 02:19:06;;;;;;;2.38;1.02;;;;;;;;;;5059103;28;20055;-79
2022/01/20 02:21:32;;;;;;;1.73;1.03;;;;;;;;;;5058410;28;20032;-78
2022/01/20 02:23:58;;;;;;;1.98;1.88;;;;;;;;;;5057673;28;20036;-79
2022/01/20 02:26:24;;;;;;;0.43;0.43;;;;;;;;;;5061236;28;20163;-78
2022/01/20 02:28:50;;;;;;;0.73;0.70;;;;;;;;;;5061836;28;20056;-79
2022/01/20 02:31:17;;;;;;;2.15;0.57;;;;;;;;;;5059647;28;20060;-81
2022/01/20 02:33:43;;;;;;;1.35;0.77;;;;;;;;;;5061178;28;20037;-81
2022/01/20 02:36:14;;;;;;;2.15;0.90;;;;;;;;;;5061161;28;20035;-81
2022/01/20 02:38:54;;;;;;;0.63;0.63;;;;;;;;;;5059294;28;20036;-79
2022/01/20 02:46:49;;;;;;;0.50;0.50;;;;;;;;;;5055125;28;20059;-79
2022/01/20 02:49:17;;;;;;;0.52;0.52;;;;;;;;;;5048956;28;20039;-80
2022/01/20 02:51:50;;;;;;;0.85;0.68;;;;;;;;;;5059853;28;20497;-79
2022/01/20 02:54:17;;;;;;;1.30;0.68;;;;;;;;;;5060551;28;20020;-82
2022/01/20 02:56:43;;;;;;;3.33;1.55;;;;;;;;;;5059390;28;20456;-80
2022/01/20 02:59:09;;;;;;;1.35;1.25;;;;;;;;;;5060488;28;20106;-80
2022/01/20 03:01:35;;;;;;;0.63;0.63;;;;;;;;;;5060491;28;20058;-80
2022/01/20 03:04:03;;;;;;;2.23;2.13;;;;;;;;;;5059866;28;20086;-80
2022/01/20 03:06:28;;;;;;;;;;;;;;;;;;5061254;28;20263;-79
2022/01/20 03:08:54;;;;;;;1.40;0.82;;;;;;;;;;5060680;28;20367;-80
2022/01/20 03:11:20;;;;;;;5.25;3.78;;;;;;;;;;5058828;28;20120;-79
2022/01/20 03:13:47;;;;;;;2.00;1.85;;;;;;;;;;5063512;28;20565;-79
2022/01/20 03:16:13;;;;;;;1.60;1.47;;;;;;;;;;5065432;28;20040;-80
2022/01/20 03:18:39;;;;;;;1.65;1.55;;;;;;;;;;5065175;28;20044;-79
2022/01/20 03:21:05;;;;;;;6.87;2.13;;;;;;;;;;5065064;28;20037;-79
2022/01/20 03:23:31;;;;;;;0.70;0.70;;;;;;;;;;5062550;28;20036;-79
2022/01/20 03:25:57;;;;;;;2.50;1.20;;;;;;;;;;5061253;28;20544;-79
2022/01/20 03:28:23;;;;;;;0.27;0.27;;;;;;;;;;5062107;28;20054;-79
2022/01/20 03:30:49;;;;;;;2.03;1.83;;;;;;;;;;5065086;28;20029;-79
2022/01/20 03:33:15;;;;;;;1.60;1.50;;;;;;;;;;5064740;28;20275;-79
2022/01/20 03:35:41;;;;;;;0.22;0.22;;;;;;;;;;5054419;28;20040;-80
2022/01/20 03:38:08;;;;;;;1.27;0.38;;;;;;;;;;5056766;28;20037;-79
2022/01/20 03:40:34;;;;;;;0.60;0.60;;;;;;;;;;5064128;28;20528;-80
2022/01/20 03:43:00;;;;;;;0.10;0.10;;;;;;;;;;5049233;28;20489;-79
2022/01/20 03:45:28;;;;;;;0.60;0.60;;;;;;;;;;5061114;28;20067;-79
2022/01/20 03:47:55;;;;;;;;;;;;;;;;;;5055894;28;20024;-79
2022/01/20 03:53:07;;;;;;;2.50;1.40;;;;;;;;;;5061918;28;20050;-79
2022/01/20 03:55:33;;;;;;;0.40;0.40;;;;;;;;;;5064064;28;20100;-79
2022/01/20 03:57:59;;;;;;;0.30;0.30;;;;;;;;;;5063501;28;20301;-79
2022/01/20 04:00:25;;;;;;;0.20;0.20;;;;;;;;;;5063978;28;20044;-79
2022/01/20 04:02:51;;;;;;;0.83;0.83;;;;;;;;;;5061118;28;20029;-80
2022/01/20 04:05:17;;;;;;;2.85;0.95;;;;;;;;;;5052377;28;20315;-79
2022/01/20 04:07:43;;;;;;;0.65;0.65;;;;;;;;;;5053188;28;20024;-79
2022/01/20 04:10:10;;;;;;;2.05;0.68;;;;;;;;;;5050062;28;20059;-79
2022/01/20 04:12:36;;;;;;;2.63;2.22;;;;;;;;;;5063895;28;20032;-79
2022/01/20 04:15:07;;;;;;;0.47;0.47;;;;;;;;;;5064696;28;20043;-79
2022/01/20 04:17:34;;;;;;;0.17;0.17;;;;;;;;;;5063857;28;20068;-79
2022/01/20 04:20:00;;;;;;;;;;;;;;;;;;5063704;28;20044;-79
2022/01/20 04:22:27;;;;;;;0.40;0.40;;;;;;;;;;5063329;28;20242;-79
2022/01/20 04:24:54;;;;;;;0.40;0.40;;;;;;;;;;5047503;28;20039;-79
2022/01/20 04:27:20;;;;;;;0.60;0.60;;;;;;;;;;5063752;28;20102;-79
2022/01/20 04:29:46;;;;;;;3.33;1.35;;;;;;;;;;5063989;28;20801;-79
2022/01/20 04:32:12;;;;;;;0.35;0.35;;;;;;;;;;5063510;28;20032;-79
2022/01/20 04:34:38;;;;;;;0.70;0.70;;;;;;;;;;5062740;28;20032;-79
2022/01/20 04:37:05;;;;;;;0.70;0.70;;;;;;;;;;5049511;28;20024;-79
2022/01/20 04:39:35;;;;;;;0.60;0.60;;;;;;;;;;5060505;28;20036;-78
2022/01/20 04:42:01;;;;;;;0.70;0.70;;;;;;;;;;5048404;28;20044;-78
2022/01/20 04:47:33;;;;;;;4.47;1.45;;;;;;;;;;5061498;28;20278;-79
2022/01/20 04:58:03;;;;;;;0.82;0.77;;;;;;;;;;5048428;28;20089;-79
2022/01/20 05:00:29;;;;;;;1.03;0.93;;;;;;;;;;5062548;28;20098;-79
2022/01/20 05:02:55;;;;;;;0.65;0.38;;;;;;;;;;5074898;28;20353;-78
2022/01/20 05:05:22;;;;;;;1.63;1.53;;;;;;;;;;5049508;28;20029;-78
2022/01/20 05:07:48;;;;;;;0.68;0.68;;;;;;;;;;5055076;28;20024;-79
2022/01/20 05:10:14;;;;;;;3.33;1.40;;;;;;;;;;5062975;28;20033;-79
2022/01/20 05:15:12;;;;;;;0.30;0.30;;;;;;;;;;5061750;28;20033;-79
2022/01/20 05:17:38;;;;;;;1.08;1.08;;;;;;;;;;5061663;28;20394;-79
2022/01/20 05:20:04;;;;;;;1.50;1.33;;;;;;;;;;5062928;28;20055;-78
2022/01/20 05:22:30;;;;;;;2.63;2.30;;;;;;;;;;5062377;28;20035;-78
2022/01/20 05:24:56;;;;;;;1.67;0.75;;;;;;;;;;5062799;28;20094;-77
2022/01/20 05:27:22;;;;;;;0.80;0.80;;;;;;;;;;5049929;28;20044;-77
2022/01/20 05:29:49;;;;;;;1.08;0.88;;;;;;;;;;5062329;28;20543;-77
2022/01/20 05:32:15;;;;;;;1.03;0.93;;;;;;;;;;5054322;28;20037;-77
2022/01/20 05:34:41;;;;;;;1.05;0.82;;;;;;;;;;5061781;28;20047;-77
2022/01/20 05:37:07;;;;;;;0.60;0.60;;;;;;;;;;5062772;28;20032;-78
2022/01/20 05:39:33;;;;;;;0.57;0.47;;;;;;;;;;5060686;28;20131;-80
2022/01/20 05:41:59;;;;;;;0.60;0.60;;;;;;;;;;5052996;28;20100;-80
2022/01/20 05:44:25;;;;;;;1.27;0.47;;;;;;;;;;5053233;28;20107;-79
2022/01/20 05:46:52;;;;;;;1.37;1.27;;;;;;;;;;5060119;28;20052;-80
2022/01/20 05:49:21;;;;;;;0.77;0.77;;;;;;;;;;5059827;28;20075;-81
2022/01/20 05:51:47;;;;;;;2.42;1.58;;;;;;;;;;5063583;28;20021;-80
2022/01/20 05:54:13;;;;;;;1.58;0.80;;;;;;;;;;5064256;28;20039;-80
2022/01/20 05:56:39;;;;;;;0.80;0.55;;;;;;;;;;5063593;28;20528;-80
2022/01/20 05:59:05;;;;;;;0.30;0.30;;;;;;;;;;5062944;28;20040;-80
2022/01/20 06:01:36;;;;;;;1.52;1.50;;;;;;;;;;5063245;28;20032;-79
2022/01/20 06:04:02;;;;;;;1.70;1.50;;;;;;;;;;5063284;28;20029;-79
2022/01/20 06:06:28;;;;;;;3.47;1.42;;;;;;;;;;5063687;28;20502;-79
2022/01/20 06:08:54;;;;;;;1.60;1.50;;;;;;;;;;5051821;28;20083;-79
2022/01/20 06:11:20;;;;;;;0.40;0.40;;;;;;;;;;5051923;28;20035;-78
2022/01/20 06:13:46;;;;;;;1.35;1.25;;;;;;;;;;5054139;28;20029;-79
2022/01/20 06:16:12;;;;;;;0.20;0.20;;;;;;;;;;5063324;28;20055;-79
2022/01/20 06:18:38;;;;;;;2.70;2.10;;;;;;;;;;5061714;28;20051;-80
2022/01/20 06:21:04;;;;;;;3.53;1.13;;;;;;;;;;5063816;28;20082;-79
2022/01/20 06:23:30;;;;;;;0.40;0.40;;;;;;;;;;5067390;28;20404;-81
2022/01/20 06:25:57;;;;;;;1.90;1.23;;;;;;;;;;5071248;28;20453;-80
2022/01/20 06:28:23;;;;;;;0.40;0.40;;;;;;;;;;5065843;28;20024;-81
2022/01/20 06:30:49;;;;;;;0.43;0.40;;;;;;;;;;5067034;28;20044;-79
2022/01/20 06:33:15;;;;;;;0.50;0.50;;;;;;;;;;5067259;28;20043;-80
2022/01/20 06:35:41;;;;;;;0.33;0.33;;;;;;;;;;5066732;28;20163;-79
2022/01/20 06:38:07;;;;;;;0.20;0.20;;;;;;;;;;5066584;28;20049;-79
2022/01/20 06:40:33;;;;;;;0.63;0.63;;;;;;;;;;5066717;28;20032;-79
2022/01/20 06:43:00;;;;;;;0.63;0.53;;;;;;;;;;5066312;28;20115;-78
2022/01/20 06:45:26;;;;;;;0.75;0.75;;;;;;;;;;5051384;28;20292;-79
2022/01/20 06:47:52;;;;;;;0.30;0.30;;;;;;;;;;5070188;28;20045;-78
2022/01/20 06:50:18;;;;;;;1.20;1.07;;;;;;;;;;5061610;28;20029;-78
2022/01/20 06:52:45;;;;;;;0.43;0.43;;;;;;;;;;5060291;28;20112;-80
2022/01/20 06:55:12;;;;;;;0.93;0.85;;;;;;;;;;5065880;28;20738;-79
2022/01/20 06:57:39;;;;;;;0.70;0.70;;;;;;;;;;5066228;28;20024;-79
2022/01/20 07:00:07;;;;;;;1.05;0.85;;;;;;;;;;5053760;28;20080;-79
2022/01/20 07:02:33;;;;;;;1.05;1.05;;;;;;;;;;5063125;28;20516;-79
2022/01/20 07:04:59;;;;;;;0.70;0.70;;;;;;;;;;5065724;28;20107;-79
2022/01/20 07:07:25;;;;;;;2.15;0.98;;;;;;;;;;5066228;28;20032;-78
2022/01/20 07:09:51;;;;;;;0.28;0.28;;;;;;;;;;5065593;28;20025;-79
2022/01/20 07:12:17;;;;;;;0.60;0.60;;;;;;;;;;5066255;28;20101;-79
2022/01/20 07:14:43;;;;;;;1.30;0.60;;;;;;;;;;5065880;28;20064;-78
2022/01/20 07:17:09;;;;;;;0.50;0.50;;;;;;;;;;5065762;28;20086;-79
2022/01/20 07:19:35;;;;;;;4.38;0.93;;;;;;;;;;5065542;28;20123;-79
2022/01/20 07:22:01;;;;;;;0.95;0.95;;;;;;;;;;5065668;28;20546;-78
2022/01/20 07:24:29;;;;;;;0.40;0.40;;;;;;;;;;5065517;28;20063;-78
2022/01/20 07:26:55;;;;;;;0.85;0.85;;;;;;;;;;5074198;28;20282;-78
2022/01/20 07:29:21;;;;;;;0.63;0.63;;;;;;;;;;5069665;28;20039;-78
2022/01/20 07:31:47;;;;;;;3.37;0.93;;;;;;;;;;5065212;28;20371;-78
2022/01/20 07:34:13;;;;;;;0.60;0.60;;;;;;;;;;5065359;28;20791;-78
2022/01/20 07:36:39;;;;;;;2.53;1.27;;;;;;;;;;5059669;28;20035;-78
2022/01/20 07:39:05;;;;;;;2.17;1.92;;;;;;;;;;5062897;28;20041;-79
2022/01/20 07:41:32;;;;;;;0.50;0.50;;;;;;;;;;5063373;28;20333;-79
2022/01/20 07:43:58;;;;;;;0.65;0.55;;;;;;;;;;5061545;28;20440;-79
2022/01/20 07:46:25;;;;;;;1.52;0.77;;;;;;;;;;5064735;28;20036;-79
2022/01/20 07:48:51;;;;;;;3.28;3.00;;;;;;;;;;5062219;28;20032;-85
2022/01/20 07:51:17;;;;;;;0.52;0.52;;;;;;;;;;5050895;28;20039;-85
2022/01/20 07:53:44;;;;;;;0.57;0.57;;;;;;;;;;5063656;28;20086;-85
2022/01/20 07:56:10;;;;;;;0.28;0.28;;;;;;;;;;5064745;28;20275;-85
2022/01/20 07:58:36;;;;;;;0.77;0.77;;;;;;;;;;5064765;28;20047;-84
2022/01/20 08:01:03;;;;;;;0.38;0.32;;;;;;;;;;5064882;28;20074;-85
2022/01/20 08:03:29;;;;;;;0.40;0.40;;;;;;;;;;5063682;28;20484;-85
2022/01/20 08:05:55;;;;;;;2.90;2.00;;;;;;;;;;5053492;28;20823;-85
2022/01/20 08:08:21;;;;;;;0.40;0.40;;;;;;;;;;5053296;28;20021;-85
2022/01/20 08:10:47;;;;;;;0.40;0.40;;;;;;;;;;5053800;28;20079;-85
2022/01/20 08:13:13;;;;;;;1.23;1.20;;;;;;;;;;5050992;28;20025;-85
2022/01/20 08:15:39;;;;;;;0.33;0.33;;;;;;;;;;5064875;28;20036;-85
2022/01/20 08:18:07;;;;;;;0.40;0.30;;;;;;;;;;5051957;28;20045;-85
2022/01/20 08:20:33;;;;;;;0.75;0.75;;;;;;;;;;5052779;28;20029;-85
2022/01/20 08:22:59;;;;;;;0.20;0.20;;;;;;;;;;5056618;28;20028;-85
2022/01/20 08:25:26;;;;;;;1.30;1.20;;;;;;;;;;5064067;28;20447;-86
2022/01/20 08:27:52;;;;;;;4.70;0.57;;;;;;;;;;5047294;28;20201;-85
2022/01/20 08:30:19;;;;;;;0.10;0.10;;;;;;;;;;5049613;28;20687;-85
2022/01/20 08:32:45;;;;;;;;;;;;;;;;;;5052905;28;20036;-85
2022/01/20 08:35:12;;;;;;;0.32;0.32;;;;;;;;;;5052584;28;19918;-86
2022/01/20 08:37:40;;;;;;;0.73;0.73;;;;;;;;;;5052674;28;20021;-86
2022/01/20 08:40:16;;;;;;;0.20;0.20;;;;;;;;;;5049220;28;20047;-85
2022/01/20 08:42:43;;;;;;;0.82;0.82;;;;;;;;;;5062201;28;20091;-85
2022/01/20 08:45:09;;;;;;;;;;;;;;;;;;5049313;28;20029;-85
2022/01/20 08:47:35;;;;;;;0.40;0.40;;;;;;;;;;5052567;28;19916;-86
2022/01/20 08:50:05;;;;;;;1.90;0.82;;;;;;;;;;5056313;28;20036;-85
2022/01/20 08:52:31;;;;;;;1.33;0.95;;;;;;;;;;5063465;28;20017;-85
2022/01/20 08:54:58;;;;;;;1.20;0.83;;;;;;;;;;5047569;28;20052;-85
2022/01/20 08:57:27;;;;;;;0.88;0.47;;;;;;;;;;5048226;28;20032;-85
2022/01/20 08:59:54;;;;;;;0.50;0.50;;;;;;;;;;5051504;28;20044;-85
2022/01/20 09:02:20;;;;;;;0.10;0.10;;;;;;;;;;5051955;28;20406;-85
2022/01/20 09:04:46;;;;;;;0.22;0.22;;;;;;;;;;5051701;28;20086;-85
2022/01/20 09:07:13;;;;;;;0.20;0.20;;;;;;;;;;5049120;28;20024;-85
2022/01/20 09:09:42;;;;;;;0.60;0.52;;;;;;;;;;5046771;28;20874;-85
2022/01/20 09:17:24;;;;;;;0.70;0.43;;;;;;;;;;5059350;28;20048;-85
2022/01/20 09:19:51;;;;;;;0.98;0.40;;;;;;;;;;5060265;28;20047;-85
2022/01/20 09:22:17;;;;;;;0.20;0.20;;;;;;;;;;5049932;28;20516;-85
2022/01/20 09:24:45;;;;;;;1.05;0.93;;;;;;;;;;5046920;28;20033;-85
2022/01/20 09:27:12;;;;;;;0.43;0.43;;;;;;;;;;5048017;28;20079;-85
2022/01/20 09:29:38;;;;;;;0.10;0.10;;;;;;;;;;5060654;28;20039;-85
2022/01/20 09:32:08;;;;;;;0.85;0.68;;;;;;;;;;5058031;28;20053;-85
2022/01/20 09:34:34;;;;;;;1.33;1.23;;;;;;;;;;5051751;28;20110;-85
2022/01/20 09:37:00;;;;;;;1.37;0.83;;;;;;;;;;5062637;28;20448;-85
2022/01/20 09:39:26;;;;;;;8.50;1.42;;;;;;;;;;5047419;28;20049;-85
2022/01/20 09:41:53;;;;;;;1.90;0.85;;;;;;;;;;5062848;28;20722;-85
2022/01/20 09:44:19;;;;;;;0.97;0.83;;;;;;;;;;5055916;28;20033;-85
2022/01/20 09:46:46;;;;;;;0.20;0.20;;;;;;;;;;5051148;28;20305;-85
2022/01/20 09:49:13;;;;;;;1.13;0.90;;;;;;;;;;5048959;28;20036;-85
2022/01/20 09:51:39;;;;;;;0.50;0.50;;;;;;;;;;5046651;28;20033;-85
2022/01/20 09:54:05;;;;;;;1.63;1.50;;;;;;;;;;5050389;28;20060;-85
2022/01/20 09:56:32;;;;;;;0.97;0.80;;;;;;;;;;5051577;28;20037;-85
2022/01/20 09:58:58;;;;;;;0.85;0.85;;;;;;;;;;5051358;28;20120;-85
2022/01/20 10:01:37;;;;;;;0.90;0.90;;;;;;;;;;5050385;28;20108;-86
2022/01/20 10:04:04;;;;;;;1.42;1.35;;;;;;;;;;5066198;28;20378;-85
2022/01/20 10:06:30;;;;;;;0.30;0.30;;;;;;;;;;5050944;28;20669;-85
2022/01/20 10:09:00;;;;;;;3.23;2.93;;;;;;;;;;5066903;28;20103;-85
2022/01/20 10:11:28;;;;;;;0.85;0.85;;;;;;;;;;5058835;28;20036;-85
2022/01/20 10:13:56;;;;;;;2.47;1.75;;;;;;;;;;5058101;28;20464;-85
2022/01/20 10:16:22;;;;;;;0.73;0.73;;;;;;;;;;5066356;28;20331;-86
2022/01/20 10:18:53;;;;;;;6.40;0.85;;;;;;;;;;5050302;28;20086;-85
2022/01/20 10:21:27;;;;;;;3.58;2.22;;;;;;;;;;5052098;28;20074;-85
2022/01/20 10:23:53;;;;;;;0.82;0.82;;;;;;;;;;5066108;28;20036;-85
2022/01/20 10:26:24;;;;;;;2.35;0.85;;;;;;;;;;5059448;28;20127;-85
2022/01/20 10:28:55;;;;;;;1.20;1.10;;;;;;;;;;5054653;28;20082;-85
2022/01/20 10:31:32;;;;;;;3.08;2.85;;;;;;;;;;5053358;28;20021;-86
2022/01/20 10:33:58;;;;;;;0.57;0.57;;;;;;;;;;5049946;28;20036;-85
2022/01/20 10:36:24;;;;;;;4.93;1.63;;;;;;;;;;5050789;28;20025;-85
2022/01/20 10:38:54;;;;;;;0.20;0.20;;;;;;;;;;5054084;28;20448;-85
2022/01/20 10:41:30;;;;;;;0.47;0.47;;;;;;;;;;5060932;28;20042;-85
2022/01/20 10:44:01;;;;;;;0.93;0.90;;;;;;;;;;5062111;28;20102;-86
2022/01/20 10:46:27;;;;;;;3.78;1.58;;;;;;;;;;5065895;28;20497;-85
2022/01/20 10:49:00;;;;;;;1.55;1.45;;;;;;;;;;5048737;28;20407;-85
2022/01/20 10:51:26;;;;;;;1.88;0.60;;;;;;;;;;5062009;28;20067;-86
2022/01/20 10:54:02;;;;;;;1.23;1.20;;;;;;;;;;5065695;28;20169;-85
2022/01/20 10:56:28;;;;;;;0.73;0.73;;;;;;;;;;5058128;28;20075;-86
2022/01/20 10:58:55;;;;;;;1.57;1.47;;;;;;;;;;5054130;28;20025;-85
2022/01/20 11:01:21;;;;;;;2.08;0.43;;;;;;;;;;5052959;28;20058;-85
2022/01/20 11:03:47;;;;;;;1.05;1.05;;;;;;;;;;5049634;28;20502;-85
2022/01/20 11:06:13;;;;;;;0.60;0.60;;;;;;;;;;5052223;28;20041;-85
2022/01/20 11:08:41;;;;;;;0.88;0.88;;;;;;;;;;5053990;28;20038;-85
2022/01/20 11:11:07;;;;;;;0.45;0.35;;;;;;;;;;5070779;28;20127;-86
2022/01/20 11:13:33;;;;;;;1.40;1.30;;;;;;;;;;5053073;28;20028;-86
2022/01/20 11:15:59;;;;;;;0.55;0.55;;;;;;;;;;5049395;28;20024;-86
2022/01/20 11:18:28;;;;;;;1.27;1.17;;;;;;;;;;5061491;28;20032;-86
2022/01/20 11:20:56;;;;;;;0.68;0.68;;;;;;;;;;5054230;28;20063;-86
2022/01/20 11:23:22;;;;;;;0.35;0.35;;;;;;;;;;5054167;28;20017;-85
2022/01/20 11:25:48;;;;;;;1.03;1.03;;;;;;;;;;5056008;28;20109;-85
2022/01/20 11:28:19;;;;;;;1.17;0.98;;;;;;;;;;5065175;28;20025;-85
2022/01/20 11:30:59;;;;;;;1.20;1.08;;;;;;;;;;5064814;28;20067;-85
2022/01/20 11:33:41;;;;;;;1.02;0.98;;;;;;;;;;5061271;28;20169;-85
2022/01/20 11:36:28;;;;;;;0.30;0.30;;;;;;;;;;5065402;28;20513;-85
2022/01/20 11:39:00;;;;;;;0.38;0.38;;;;;;;;;;5053725;28;20492;-85
2022/01/20 11:41:33;;;;;;;1.75;0.57;;;;;;;;;;5061097;28;20566;-85
2022/01/20 11:44:07;;;;;;;0.63;0.63;;;;;;;;;;5056195;28;20036;-85
2022/01/20 11:46:38;;;;;;;0.70;0.65;;;;;;;;;;5053492;28;20036;-86
2022/01/20 11:49:10;;;;;;;0.90;0.88;;;;;;;;;;5064746;28;20105;-86
2022/01/20 11:51:47;;;;;;;0.32;0.32;;;;;;;;;;5063344;28;20498;-85
2022/01/20 11:54:16;;;;;;;1.17;1.05;;;;;;;;;;5049361;28;20159;-85
2022/01/20 11:56:43;;;;;;;0.40;0.40;;;;;;;;;;5053439;28;20777;-85
2022/01/20 11:59:13;;;;;;;0.82;0.82;;;;;;;;;;5053128;28;20118;-85
2022/01/20 12:01:51;;;;;;;0.88;0.80;;;;;;;;;;5054227;28;20020;-85
2022/01/20 12:04:17;;;;;;;2.08;1.20;;;;;;;;;;5064390;28;20025;-86
2022/01/20 12:06:46;;;;;;;1.08;0.98;;;;;;;;;;5064625;28;20132;-85
2022/01/20 12:09:13;;;;;;;1.15;1.05;;;;;;;;;;5049579;28;20366;-85
2022/01/20 12:11:42;;;;;;;0.55;0.47;;;;;;;;;;5068358;28;20020;-86
2022/01/20 12:14:09;;;;;;;0.25;0.25;;;;;;;;;;5052889;28;20037;-85
2022/01/20 12:16:36;;;;;;;0.82;0.73;;;;;;;;;;5053142;28;20032;-85
2022/01/20 12:19:02;;;;;;;4.93;2.05;;;;;;;;;;5063852;28;20060;-85
2022/01/20 12:21:30;;;;;;;2.72;1.52;;;;;;;;;;5048481;28;20037;-86
2022/01/20 12:23:57;;;;;;;2.03;1.83;;;;;;;;;;5052597;28;20025;-86
2022/01/20 12:26:23;;;;;;;3.83;1.50;;;;;;;;;;5052106;28;20052;-85
2022/01/20 12:29:00;;;;;;;2.55;1.05;;;;;;;;;;5054677;28;20406;-85
2022/01/20 12:31:26;;;;;;;3.05;1.30;;;;;;;;;;5063980;28;20029;-86
2022/01/20 12:33:53;;;;;;;0.50;0.50;;;;;;;;;;5046142;28;20036;-85
2022/01/20 12:36:19;;;;;;;1.92;1.75;;;;;;;;;;5064476;28;20013;-85
2022/01/20 12:38:47;;;;;;;10.77;2.05;;;;;;;;;;5053723;28;20833;-86
2022/01/20 12:41:13;;;;;;;1.60;1.50;;;;;;;;;;5058330;28;20032;-85
2022/01/20 12:43:50;;;;;;;0.63;0.63;;;;;;;;;;5063918;28;20467;-85
2022/01/20 12:46:17;;;;;;;6.13;0.85;;;;;;;;;;5059681;28;20037;-86
2022/01/20 12:48:53;;;;;;;4.75;2.08;;;;;;;;;;5045504;28;20119;-85
2022/01/20 12:51:19;;;;;;;3.42;1.60;;;;;;;;;;5048469;28;20036;-85
2022/01/20 12:53:55;;;;;;;0.97;0.90;;;;;;;;;;5051938;28;20036;-84
2022/01/20 12:56:29;;;;;;;2.30;2.20;;;;;;;;;;5058723;28;20278;-85
2022/01/20 12:58:55;;;;;;;1.40;1.30;;;;;;;;;;5063498;28;20580;-86
2022/01/20 13:01:21;;;;;;;0.45;0.45;;;;;;;;;;5063143;28;20509;-85
2022/01/20 13:03:48;;;;;;;2.13;1.40;;;;;;;;;;5047248;28;20083;-85
2022/01/20 13:06:26;;;;;;;0.20;0.20;;;;;;;;;;5064039;28;20031;-86
2022/01/20 13:08:59;;;;;;;1.15;0.82;;;;;;;;;;5063092;28;20532;-85
2022/01/20 13:11:29;;;;;;;1.13;1.13;;;;;;;;;;5055812;28;20123;-85
2022/01/20 13:13:57;;;;;;;1.13;1.02;;;;;;;;;;5055018;28;20139;-85
2022/01/20 13:16:23;;;;;;;0.30;0.30;;;;;;;;;;5063028;28;20028;-86
2022/01/20 13:18:56;;;;;;;3.80;2.10;;;;;;;;;;5062988;28;20616;-86
2022/01/20 13:21:33;;;;;;;0.10;0.10;;;;;;;;;;5063807;28;20035;-85
2022/01/20 13:23:59;;;;;;;0.90;0.82;;;;;;;;;;5051341;28;20037;-85
2022/01/20 13:26:26;;;;;;;1.40;1.38;;;;;;;;;;5058958;28;20126;-86
2022/01/20 13:29:04;;;;;;;1.50;1.40;;;;;;;;;;5055675;28;20185;-85
2022/01/20 13:31:30;;;;;;;0.32;0.32;;;;;;;;;;5062804;28;20036;-85
2022/01/20 13:33:59;;;;;;;0.65;0.65;;;;;;;;;;5046545;28;20036;-86
2022/01/20 13:36:35;;;;;;;0.70;0.70;;;;;;;;;;5056286;28;20464;-86
2022/01/20 13:39:01;;;;;;;5.43;1.73;;;;;;;;;;5053840;28;20032;-85
2022/01/20 13:41:28;;;;;;;1.63;0.53;;;;;;;;;;5056268;28;20103;-86
2022/01/20 13:46:45;;;;;;;0.20;0.20;;;;;;;;;;5057107;28;20071;-85
2022/01/20 13:49:10;;;;;;;;;;;;;;;;;;5055897;28;20032;-85
2022/01/20 13:51:37;;;;;;;1.70;0.75;;;;;;;;;;5070464;28;20326;-85
2022/01/20 13:54:03;;;;;;;0.60;0.60;;;;;;;;;;5063480;28;20109;-85
2022/01/20 13:56:30;;;;;;;0.90;0.88;;;;;;;;;;5051123;28;20059;-88
2022/01/20 13:59:09;;;;;;;0.47;0.43;;;;;;;;;;5052378;28;20501;-89
2022/01/20 14:01:35;;;;;;;0.32;0.32;;;;;;;;;;5052249;28;20029;-82
2022/01/20 14:04:02;;;;;;;6.32;0.88;;;;;;;;;;5064515;28;20031;-90
2022/01/20 14:06:28;;;;;;;0.45;0.45;;;;;;;;;;5064593;28;20463;-89
2022/01/20 14:08:55;;;;;;;0.73;0.45;;;;;;;;;;5051557;28;20059;-86
2022/01/20 14:11:22;;;;;;;0.55;0.55;;;;;;;;;;5066769;28;20519;-88
2022/01/20 14:13:48;;;;;;;;;;;;;;;;;;5051897;28;20032;-88
2022/01/20 14:16:14;;;;;;;0.20;0.20;;;;;;;;;;5049066;28;19920;-90
2022/01/20 14:18:45;;;;;;;0.43;0.43;;;;;;;;;;5046306;28;20706;-88
2022/01/20 14:21:15;;;;;;;0.30;0.30;;;;;;;;;;5047357;28;20098;-87
2022/01/20 14:23:42;;;;;;;0.68;0.60;;;;;;;;;;5066095;28;20044;-89
2022/01/20 14:26:12;;;;;;;0.10;0.10;;;;;;;;;;5055857;28;20049;-89
2022/01/20 14:28:38;;;;;;;1.27;0.60;;;;;;;;;;5062186;28;20032;-89
2022/01/20 14:31:04;;;;;;;0.20;0.20;;;;;;;;;;5062491;28;20020;-88
2022/01/20 14:33:30;;;;;;;0.60;0.60;;;;;;;;;;5063026;28;20107;-88
2022/01/20 14:35:56;;;;;;;0.10;0.10;;;;;;;;;;5062295;28;20024;-88
2022/01/20 14:38:23;;;;;;;0.63;0.63;;;;;;;;;;5062049;28;20051;-88
2022/01/20 14:40:49;;;;;;;0.28;0.28;;;;;;;;;;5062192;28;20032;-88
2022/01/20 14:43:18;;;;;;;0.22;0.22;;;;;;;;;;5058040;28;20041;-89
2022/01/20 14:45:44;;;;;;;0.10;0.10;;;;;;;;;;5062338;28;20103;-89
2022/01/20 14:48:10;;;;;;;0.45;0.45;;;;;;;;;;5047981;28;20036;-88
2022/01/20 14:50:36;;;;;;;0.10;0.10;;;;;;;;;;5054403;28;20611;-88
2022/01/20 14:53:03;;;;;;;0.50;0.50;;;;;;;;;;5058511;28;20020;-88
2022/01/20 14:55:29;;;;;;;0.63;0.63;;;;;;;;;;5065508;28;20067;-88
2022/01/20 14:57:55;;;;;;;0.08;0.08;;;;;;;;;;5065606;28;20112;-88
2022/01/20 15:00:21;;;;;;;0.40;0.40;;;;;;;;;;5066254;28;20044;-87
2022/01/20 15:02:48;;;;;;;0.20;0.13;;;;;;;;;;5065679;28;20032;-86
2022/01/20 15:05:18;;;;;;;0.20;0.20;;;;;;;;;;5065596;28;20116;-84
2022/01/20 15:07:44;;;;;;;0.95;0.95;;;;;;;;;;5065235;28;20031;-84
2022/01/20 15:10:12;;;;;;;0.10;0.10;;;;;;;;;;5065268;28;20038;-85
2022/01/20 15:12:39;;;;;;;1.80;1.08;;;;;;;;;;5065527;28;20030;-85
2022/01/20 15:15:06;;;;;;;0.40;0.40;;;;;;;;;;5065884;28;20028;-85
2022/01/20 15:17:32;;;;;;;1.27;1.20;;;;;;;;;;5065128;28;20580;-85
2022/01/20 15:19:58;;;;;;;0.20;0.20;;;;;;;;;;5064983;28;20558;-86
2022/01/20 15:22:25;;;;;;;0.68;0.68;;;;;;;;;;5066083;28;20507;-86
2022/01/20 15:24:51;;;;;;;0.37;0.37;;;;;;;;;;5049634;28;20052;-86
2022/01/20 15:27:17;;;;;;;2.47;1.47;;;;;;;;;;5066567;28;20103;-85
2022/01/20 15:29:43;;;;;;;0.80;0.80;;;;;;;;;;5056233;28;20573;-86
2022/01/20 15:32:09;;;;;;;2.28;1.73;;;;;;;;;;5054499;28;20521;-86
2022/01/20 15:34:35;;;;;;;0.37;0.37;;;;;;;;;;5054685;28;20380;-86
2022/01/20 15:37:01;;;;;;;1.93;1.20;;;;;;;;;;5065997;28;20124;-86
2022/01/20 15:39:27;;;;;;;0.32;0.32;;;;;;;;;;5061788;28;20048;-86
2022/01/20 15:41:53;;;;;;;1.00;1.00;;;;;;;;;;5065378;28;20056;-86
2022/01/20 15:44:20;;;;;;;0.68;0.68;;;;;;;;;;5065459;28;20515;-87
2022/01/20 15:46:46;;;;;;;0.50;0.50;;;;;;;;;;5063765;28;20036;-86
2022/01/20 15:49:12;;;;;;;1.35;0.43;;;;;;;;;;5051116;28;20033;-87
2022/01/20 15:51:39;;;;;;;0.10;0.10;;;;;;;;;;5064036;28;20111;-86
2022/01/20 15:54:05;;;;;;;1.17;1.13;;;;;;;;;;5064473;28;20044;-86
2022/01/20 15:56:31;;;;;;;2.27;0.83;;;;;;;;;;5065368;28;20036;-87
2022/01/20 15:58:57;;;;;;;0.10;0.10;;;;;;;;;;5065085;28;20658;-86